Time;durP1;ratioP1;P1;durP2;ratioP2;P2;SDS_P1;SDS_P2;PMS_P1;PMS_P2;Temp;Humidity;BMP_temperature;BMP_pressure;BME280_temperature;BME280_humidity;BME280_pressure;Samples;Min_cycle;Max_cycle;Signal;HPM_P1;HPM_P2
2023/06/25 00:00:23;;;;;;;;;;;;;;;;;;5058691;28;19981;-86
2023/06/25 00:02:49;;;;;;;;;;;;;;;;;;5059685;28;20367;-85
2023/06/25 00:05:15;;;;;;;;;;;;;;;;;;5076193;28;19920;-86
2023/06/25 00:07:43;;;;;;;;;;;;;;;;;;5059252;28;19969;-86
2023/06/25 00:10:09;;;;;;;;;;;;;;;;;;5059407;28;19927;-86
2023/06/25 00:12:35;;;;;;;;;;;;;;;;;;5075858;28;19920;-86
2023/06/25 00:15:01;;;;;;;;;;;;;;;;;;5076437;28;19954;-85
2023/06/25 00:17:27;;;;;;;;;;;;;;;;;;5076160;28;19924;-86
2023/06/25 00:19:53;;;;;;;;;;;;;;;;;;5075512;28;20302;-85
2023/06/25 00:22:19;;;;;;;;;;;;;;;;;;5059044;28;19927;-84
2023/06/25 00:24:45;;;;;;;;;;;;;;;;;;5072281;28;19924;-85
2023/06/25 00:27:11;;;;;;;;;;;;;;;;;;5075495;28;19927;-86
2023/06/25 00:29:37;;;;;;;;;;;;;;;;;;5075098;28;20451;-86
2023/06/25 00:32:03;;;;;;;;;;;;;;;;;;5075746;28;19928;-86
2023/06/25 00:34:28;;;;;;;;;;;;;;;;;;5075490;28;19930;-85
2023/06/25 00:36:54;;;;;;;;;;;;;;;;;;5075593;28;19927;-86
2023/06/25 00:39:20;;;;;;;;;;;;;;;;;;5075576;28;20068;-85
2023/06/25 00:41:46;;;;;;;;;;;;;;;;;;5075378;28;19943;-86
2023/06/25 00:44:12;;;;;;;;;;;;;;;;;;5076302;28;20362;-87
2023/06/25 00:46:38;;;;;;;;;;;;;;;;;;5076444;28;19920;-86
2023/06/25 00:49:07;;;;;;;;;;;;;;;;;;5076270;28;19927;-86
2023/06/25 00:51:35;;;;;;;;;;;;;;;;;;5075567;28;20457;-86
2023/06/25 00:54:01;;;;;;;;;;;;;;;;;;5075644;28;19925;-85
2023/06/25 00:56:31;;;;;;;;;;;;;;;;;;5075940;28;19931;-86
2023/06/25 00:59:01;;;;;;;;;;;;;;;;;;5076181;28;19935;-86
2023/06/25 01:01:28;;;;;;;;;;;;;;;;;;5075974;28;19924;-86
2023/06/25 01:03:54;;;;;;;;;;;;;;;;;;5075642;28;19943;-85
2023/06/25 01:06:20;;;;;;;;;;;;;;;;;;5075979;28;19920;-87
2023/06/25 01:08:50;;;;;;;;;;;;;;;;;;5075439;28;19982;-86
2023/06/25 01:11:16;;;;;;;;;;;;;;;;;;5076496;28;19920;-86
2023/06/25 01:13:43;;;;;;;;;;;;;;;;;;5076025;28;19928;-86
2023/06/25 01:16:09;;;;;;;;;;;;;;;;;;5076078;28;19927;-86
2023/06/25 01:18:39;;;;;;;;;;;;;;;;;;5062168;28;19920;-85
2023/06/25 01:21:05;;;;;;;;;;;;;;;;;;5062772;28;20008;-86
2023/06/25 01:23:31;;;;;;;;;;;;;;;;;;5079427;28;20389;-87
2023/06/25 01:25:58;;;;;;;;;;;;;;;;;;5059931;28;19967;-87
2023/06/25 01:28:24;;;;;;;;;;;;;;;;;;5078885;28;19987;-85
2023/06/25 01:30:51;;;;;;;;;;;;;;;;;;5062237;28;19959;-87
2023/06/25 01:33:25;;;;;;;;;;;;;;;;;;5062441;28;19932;-87
2023/06/25 01:35:51;;;;;;;;;;;;;;;;;;5079660;28;20374;-87
2023/06/25 01:38:17;;;;;;;;;;;;;;;;;;5062664;28;19923;-86
2023/06/25 01:40:43;;;;;;;;;;;;;;;;;;5078259;28;19927;-87
2023/06/25 01:43:09;;;;;;;;;;;;;;;;;;5078214;28;19975;-86
2023/06/25 01:45:35;;;;;;;;;;;;;;;;;;5062251;28;19927;-86
2023/06/25 01:48:01;;;;;;;;;;;;;;;;;;5062217;28;20019;-83
2023/06/25 01:50:27;;;;;;;;;;;;;;;;;;5071036;28;19928;-85
2023/06/25 01:52:53;;;;;;;;;;;;;;;;;;5068934;28;19946;-86
2023/06/25 01:55:19;;;;;;;;;;;;;;;;;;5081302;28;20011;-86
2023/06/25 01:57:45;;;;;;;;;;;;;;;;;;5098832;28;19985;-85
2023/06/25 02:02:50;;;;;;;;;;;;;;;;;;5098854;28;20010;-86
2023/06/25 02:05:16;;;;;;;;;;;;;;;;;;5081377;28;19989;-87
2023/06/25 02:07:42;;;;;;;;;;;;;;;;;;5081683;28;20362;-86
2023/06/25 02:10:08;;;;;;;;;;;;;;;;;;5081537;28;19919;-86
2023/06/25 02:12:34;;;;;;;;;;;;;;;;;;5082152;28;19919;-86
2023/06/25 02:14:59;;;;;;;;;;;;;;;;;;5081798;28;19926;-86
2023/06/25 02:17:25;;;;;;;;;;;;;;;;;;5081497;28;20373;-86
2023/06/25 02:19:51;;;;;;;;;;;;;;;;;;5098484;28;19927;-86
2023/06/25 02:22:17;;;;;;;;;;;;;;;;;;5081126;28;19931;-86
2023/06/25 02:24:43;;;;;;;;;;;;;;;;;;5098205;28;19955;-87
2023/06/25 02:27:09;;;;;;;;;;;;;;;;;;5081911;28;19920;-86
2023/06/25 02:29:35;;;;;;;;;;;;;;;;;;5061783;28;19926;-85
2023/06/25 02:32:01;;;;;;;;;;;;;;;;;;5077298;28;20015;-85
2023/06/25 02:34:27;;;;;;;;;;;;;;;;;;5078142;28;19967;-86
2023/06/25 02:36:53;;;;;;;;;;;;;;;;;;5061006;28;19920;-86
2023/06/25 02:39:19;;;;;;;;;;;;;;;;;;5061227;28;20318;-88
2023/06/25 02:41:44;;;;;;;;;;;;;;;;;;5060757;28;20332;-86
2023/06/25 02:44:10;;;;;;;;;;;;;;;;;;5077337;28;19919;-87
2023/06/25 02:46:36;;;;;;;;;;;;;;;;;;5061003;28;20730;-86
2023/06/25 02:49:02;;;;;;;;;;;;;;;;;;5064387;28;20386;-86
2023/06/25 02:51:28;;;;;;;;;;;;;;;;;;5060397;28;19931;-86
2023/06/25 02:53:54;;;;;;;;;;;;;;;;;;5061150;28;19924;-86
2023/06/25 02:56:20;;;;;;;;;;;;;;;;;;5061963;28;19927;-86
2023/06/25 02:58:46;;;;;;;;;;;;;;;;;;5060850;28;19920;-86
2023/06/25 03:01:12;;;;;;;;;;;;;;;;;;5077673;28;19970;-87
2023/06/25 03:03:38;;;;;;;;;;;;;;;;;;5061481;28;19920;-87
2023/06/25 03:06:04;;;;;;;;;;;;;;;;;;5061084;28;19920;-86
2023/06/25 03:08:30;;;;;;;;;;;;;;;;;;5067327;28;20339;-84
2023/06/25 03:10:56;;;;;;;;;;;;;;;;;;5077163;28;19942;-86
2023/06/25 03:13:22;;;;;;;;;;;;;;;;;;5077387;28;19924;-86
2023/06/25 03:15:48;;;;;;;;;;;;;;;;;;5078131;28;19920;-87
2023/06/25 03:18:13;;;;;;;;;;;;;;;;;;5073746;28;19920;-87
2023/06/25 03:20:39;;;;;;;;;;;;;;;;;;5077818;28;19920;-87
2023/06/25 03:23:05;;;;;;;;;;;;;;;;;;5060984;28;19960;-86
2023/06/25 03:25:31;;;;;;;;;;;;;;;;;;5060707;28;20006;-86
2023/06/25 03:27:57;;;;;;;;;;;;;;;;;;5060539;28;20018;-87
2023/06/25 03:30:23;;;;;;;;;;;;;;;;;;5060275;28;19920;-86
2023/06/25 03:32:49;;;;;;;;;;;;;;;;;;5060101;28;19920;-86
2023/06/25 03:35:17;;;;;;;;;;;;;;;;;;5060040;28;19920;-86
2023/06/25 03:37:43;;;;;;;;;;;;;;;;;;5062855;28;19920;-87
2023/06/25 03:40:09;;;;;;;;;;;;;;;;;;5080792;28;19920;-86
2023/06/25 03:42:35;;;;;;;;;;;;;;;;;;5097682;28;19965;-86
2023/06/25 03:45:01;;;;;;;;;;;;;;;;;;5096915;28;20392;-86
2023/06/25 03:47:26;;;;;;;;;;;;;;;;;;5079729;28;19974;-86
2023/06/25 03:49:52;;;;;;;;;;;;;;;;;;5075669;28;19924;-84
2023/06/25 03:52:18;;;;;;;;;;;;;;;;;;5076896;28;19927;-86
2023/06/25 03:54:44;;;;;;;;;;;;;;;;;;5060073;28;19931;-86
2023/06/25 03:57:10;;;;;;;;;;;;;;;;;;5059655;28;20023;-87
2023/06/25 03:59:36;;;;;;;;;;;;;;;;;;5065186;28;19951;-87
2023/06/25 04:02:02;;;;;;;;;;;;;;;;;;5076279;28;20477;-86
2023/06/25 04:04:30;;;;;;;;;;;;;;;;;;5076507;28;19923;-86
2023/06/25 04:06:56;;;;;;;;;;;;;;;;;;5077369;28;19926;-87
2023/06/25 04:09:22;;;;;;;;;;;;;;;;;;5076720;28;19967;-89
2023/06/25 04:11:48;;;;;;;;;;;;;;;;;;5077552;28;19920;-87
2023/06/25 04:14:14;;;;;;;;;;;;;;;;;;5076508;28;20397;-87
2023/06/25 04:16:40;;;;;;;;;;;;;;;;;;5077965;28;19920;-87
2023/06/25 04:19:06;;;;;;;;;;;;;;;;;;5076673;28;19920;-85
2023/06/25 04:21:31;;;;;;;;;;;;;;;;;;5076559;28;20406;-85
2023/06/25 04:23:57;;;;;;;;;;;;;;;;;;5077077;28;20017;-86
2023/06/25 04:26:23;;;;;;;;;;;;;;;;;;5078476;28;19920;-85
2023/06/25 04:28:49;;;;;;;;;;;;;;;;;;5076488;28;19927;-85
2023/06/25 04:31:15;;;;;;;;;;;;;;;;;;5076688;28;19920;-86
2023/06/25 04:33:41;;;;;;;;;;;;;;;;;;5076723;28;19931;-87
2023/06/25 04:36:07;;;;;;;;;;;;;;;;;;5077011;28;19931;-86
2023/06/25 04:38:33;;;;;;;;;;;;;;;;;;5077053;28;20519;-87
2023/06/25 04:40:59;;;;;;;;;;;;;;;;;;5076880;28;19978;-87
2023/06/25 04:43:25;;;;;;;;;;;;;;;;;;5077681;28;19974;-88
2023/06/25 04:45:51;;;;;;;;;;;;;;;;;;5077517;28;19966;-87
2023/06/25 04:48:17;;;;;;;;;;;;;;;;;;5077708;28;19985;-87
2023/06/25 04:50:43;;;;;;;;;;;;;;;;;;5076892;28;19920;-87
2023/06/25 04:53:09;;;;;;;;;;;;;;;;;;5078462;28;19924;-87
2023/06/25 04:55:35;;;;;;;;;;;;;;;;;;5080974;28;20057;-87
2023/06/25 04:58:01;;;;;;;;;;;;;;;;;;5064322;28;20006;-86
2023/06/25 05:00:27;;;;;;;;;;;;;;;;;;5063801;28;19927;-88
2023/06/25 05:02:53;;;;;;;;;;;;;;;;;;5066460;28;21597;-87
2023/06/25 05:08:22;;;;;;;;;;;;;;;;;;5119380;28;19918;-86
2023/06/25 05:10:48;;;;;;;;;;;;;;;;;;5084109;28;20003;-87
2023/06/25 05:13:14;;;;;;;;;;;;;;;;;;5099972;28;19932;-87
2023/06/25 05:15:41;;;;;;;;;;;;;;;;;;5084303;28;20412;-86
2023/06/25 05:18:07;;;;;;;;;;;;;;;;;;5083084;28;20352;-86
2023/06/25 05:20:35;;;;;;;;;;;;;;;;;;5083703;28;19926;-86
2023/06/25 05:23:01;;;;;;;;;;;;;;;;;;5100035;28;19951;-87
2023/06/25 05:25:27;;;;;;;;;;;;;;;;;;5084912;28;20376;-87
2023/06/25 05:27:53;;;;;;;;;;;;;;;;;;5081510;28;19936;-87
2023/06/25 05:30:19;;;;;;;;;;;;;;;;;;5063962;28;19943;-87
2023/06/25 05:32:45;;;;;;;;;;;;;;;;;;5064964;28;19920;-87
2023/06/25 05:35:11;;;;;;;;;;;;;;;;;;5084122;28;19920;-87
2023/06/25 05:37:37;;;;;;;;;;;;;;;;;;5083384;28;19924;-88
2023/06/25 05:40:03;;;;;;;;;;;;;;;;;;5063231;28;19926;-88
2023/06/25 05:42:29;;;;;;;;;;;;;;;;;;5063825;28;20080;-88
2023/06/25 05:44:55;;;;;;;;;;;;;;;;;;5062919;28;20007;-87
2023/06/25 05:47:20;;;;;;;;;;;;;;;;;;5063326;28;19967;-87
2023/06/25 05:49:46;;;;;;;;;;;;;;;;;;5079889;28;20357;-87
2023/06/25 05:52:12;;;;;;;;;;;;;;;;;;5080641;28;19962;-87
2023/06/25 05:54:38;;;;;;;;;;;;;;;;;;5062836;28;19924;-86
2023/06/25 05:57:04;;;;;;;;;;;;;;;;;;5062133;28;19927;-86
2023/06/25 05:59:30;;;;;;;;;;;;;;;;;;5061862;28;19962;-86
2023/06/25 06:01:56;;;;;;;;;;;;;;;;;;5078744;28;20010;-87
2023/06/25 06:04:22;;;;;;;;;;;;;;;;;;5075204;28;19927;-87
2023/06/25 06:06:48;;;;;;;;;;;;;;;;;;5082274;28;19923;-87
2023/06/25 06:09:14;;;;;;;;;;;;;;;;;;5078635;28;19970;-87
2023/06/25 06:11:40;;;;;;;;;;;;;;;;;;5062901;28;19920;-87
2023/06/25 06:14:06;;;;;;;;;;;;;;;;;;5062289;28;19928;-86
2023/06/25 06:16:31;;;;;;;;;;;;;;;;;;5062410;28;19930;-86
2023/06/25 06:18:57;;;;;;;;;;;;;;;;;;5062669;28;20423;-85
2023/06/25 06:21:23;;;;;;;;;;;;;;;;;;5061609;28;19920;-86
2023/06/25 06:23:49;;;;;;;;;;;;;;;;;;5078674;28;19920;-87
2023/06/25 06:26:15;;;;;;;;;;;;;;;;;;5062106;28;19924;-87
2023/06/25 06:28:41;;;;;;;;;;;;;;;;;;5079182;28;19920;-87
2023/06/25 06:31:07;;;;;;;;;;;;;;;;;;5063116;28;19928;-87
2023/06/25 06:33:33;;;;;;;;;;;;;;;;;;5062635;28;19920;-87
2023/06/25 06:35:59;;;;;;;;;;;;;;;;;;5078807;28;19931;-86
2023/06/25 06:38:25;;;;;;;;;;;;;;;;;;5078248;28;20287;-86
2023/06/25 06:40:51;;;;;;;;;;;;;;;;;;5078922;28;19926;-86
2023/06/25 06:43:16;;;;;;;;;;;;;;;;;;5079271;28;19963;-88
2023/06/25 06:45:42;;;;;;;;;;;;;;;;;;5080759;28;19969;-89
2023/06/25 06:48:09;;;;;;;;;;;;;;;;;;5066104;28;19920;-86
2023/06/25 06:50:35;;;;;;;;;;;;;;;;;;5082955;28;19924;-87
2023/06/25 06:53:00;;;;;;;;;;;;;;;;;;5073075;28;20277;-83
2023/06/25 06:55:31;;;;;;;;;;;;;;;;;;5068704;28;19931;-84
2023/06/25 06:57:57;;;;;;;;;;;;;;;;;;5068729;28;20365;-84
2023/06/25 07:00:26;;;;;;;;;;;;;;;;;;5070504;28;19927;-85
2023/06/25 07:02:55;;;;;;;;;;;;;;;;;;5079592;28;19926;-85
2023/06/25 07:05:21;;;;;;;;;;;;;;;;;;5067165;28;19919;-86
2023/06/25 07:07:47;;;;;;;;;;;;;;;;;;5072271;28;19930;-84
2023/06/25 07:10:13;;;;;;;;;;;;;;;;;;5078823;28;19920;-86
2023/06/25 07:12:39;;;;;;;;;;;;;;;;;;5079461;28;19963;-86
2023/06/25 07:15:05;;;;;;;;;;;;;;;;;;5095450;28;20024;-83
2023/06/25 07:20:17;;;;;;;;;;;;;;;;;;5096018;28;19920;-84
2023/06/25 07:22:43;;;;;;;;;;;;;;;;;;5079405;28;20415;-85
2023/06/25 07:25:09;;;;;;;;;;;;;;;;;;5072686;28;20006;-85
2023/06/25 07:27:35;;;;;;;;;;;;;;;;;;5075935;28;19924;-85
2023/06/25 07:30:01;;;;;;;;;;;;;;;;;;5059164;28;20370;-85
2023/06/25 07:32:27;;;;;;;;;;;;;;;;;;5059637;28;19924;-85
2023/06/25 07:34:53;;;;;;;;;;;;;;;;;;5070752;28;19919;-85
2023/06/25 07:37:19;;;;;;;;;;;;;;;;;;5075814;28;19924;-85
2023/06/25 07:39:45;;;;;;;;;;;;;;;;;;5061101;28;20313;-85
2023/06/25 07:42:11;;;;;;;;;;;;;;;;;;5075700;28;20034;-84
2023/06/25 07:44:37;;;;;;;;;;;;;;;;;;5075679;28;20078;-84
2023/06/25 07:47:03;;;;;;;;;;;;;;;;;;5059116;28;20024;-85
2023/06/25 07:49:28;;;;;;;;;;;;;;;;;;5075407;28;19924;-84
2023/06/25 07:51:54;;;;;;;;;;;;;;;;;;5075469;28;19943;-85
2023/06/25 07:54:21;;;;;;;;;;;;;;;;;;5075526;28;19927;-84
2023/06/25 07:56:47;;;;;;;;;;;;;;;;;;5065250;28;19923;-85
2023/06/25 07:59:13;;;;;;;;;;;;;;;;;;5075240;28;20378;-85
2023/06/25 08:01:39;;;;;;;;;;;;;;;;;;5069603;28;19920;-84
2023/06/25 08:04:05;;;;;;;;;;;;;;;;;;5074902;28;19924;-84
2023/06/25 08:06:37;;;;;;;;;;;;;;;;;;5070333;28;19969;-84
2023/06/25 08:09:03;;;;;;;;;;;;;;;;;;5078855;28;19924;-84
2023/06/25 08:11:29;;;;;;;;;;;;;;;;;;5080458;28;19972;-85
2023/06/25 08:13:55;;;;;;;;;;;;;;;;;;5090466;28;20577;-84
2023/06/25 08:16:22;;;;;;;;;;;;;;;;;;5093445;28;19985;-84
2023/06/25 08:18:48;;;;;;;;;;;;;;;;;;5058156;28;19920;-84
2023/06/25 08:21:14;;;;;;;;;;;;;;;;;;5086253;28;20331;-84
2023/06/25 08:23:40;;;;;;;;;;;;;;;;;;5074046;28;20278;-84
2023/06/25 08:26:06;;;;;;;;;;;;;;;;;;5089305;28;19927;-84
2023/06/25 08:28:32;;;;;;;;;;;;;;;;;;5098745;28;20386;-85
2023/06/25 08:30:58;;;;;;;;;;;;;;;;;;5078604;28;20012;-84
2023/06/25 08:33:24;;;;;;;;;;;;;;;;;;5066621;28;19920;-84
2023/06/25 08:35:50;;;;;;;;;;;;;;;;;;5076388;28;19924;-84
2023/06/25 08:38:19;;;;;;;;;;;;;;;;;;5076047;28;20271;-85
2023/06/25 08:40:45;;;;;;;;;;;;;;;;;;5086264;28;19930;-85
2023/06/25 08:43:10;;;;;;;;;;;;;;;;;;5094983;28;19920;-85
2023/06/25 08:45:36;;;;;;;;;;;;;;;;;;5078258;28;19967;-86
2023/06/25 08:48:02;;;;;;;;;;;;;;;;;;5061477;28;20297;-85
2023/06/25 08:50:28;;;;;;;;;;;;;;;;;;5063173;28;20441;-85
2023/06/25 08:52:55;;;;;;;;;;;;;;;;;;5061225;28;20006;-85
2023/06/25 08:55:22;;;;;;;;;;;;;;;;;;5061556;28;19978;-86
2023/06/25 08:57:48;;;;;;;;;;;;;;;;;;5078437;28;20402;-84
2023/06/25 09:00:16;;;;;;;;;;;;;;;;;;5061104;28;19920;-85
2023/06/25 09:02:42;;;;;;;;;;;;;;;;;;5078000;28;19920;-84
2023/06/25 09:05:10;;;;;;;;;;;;;;;;;;5061347;28;20054;-86
2023/06/25 09:07:36;;;;;;;;;;;;;;;;;;5077986;28;19920;-84
2023/06/25 09:10:02;;;;;;;;;;;;;;;;;;5091517;28;19926;-84
2023/06/25 09:12:28;;;;;;;;;;;;;;;;;;5080657;28;19951;-85
2023/06/25 09:14:54;;;;;;;;;;;;;;;;;;5080973;28;20352;-84
2023/06/25 09:17:20;;;;;;;;;;;;;;;;;;5081110;28;20427;-85
2023/06/25 09:19:45;;;;;;;;;;;;;;;;;;5096649;28;20014;-84
2023/06/25 09:22:11;;;;;;;;;;;;;;;;;;5080835;28;19926;-83
2023/06/25 09:24:52;;;;;;;;;;;;;;;;;;5097729;28;19924;-85
2023/06/25 09:27:18;;;;;;;;;;;;;;;;;;5080532;28;19931;-84
2023/06/25 09:29:44;;;;;;;;;;;;;;;;;;5096668;28;19919;-84
2023/06/25 09:32:10;;;;;;;;;;;;;;;;;;5080225;28;19920;-85
2023/06/25 09:34:35;;;;;;;;;;;;;;;;;;5080824;28;19920;-85
2023/06/25 09:37:01;;;;;;;;;;;;;;;;;;5080258;28;19948;-83
2023/06/25 09:39:27;;;;;;;;;;;;;;;;;;5079703;28;19923;-85
2023/06/25 09:41:53;;;;;;;;;;;;;;;;;;5076990;28;19920;-83
2023/06/25 09:44:19;;;;;;;;;;;;;;;;;;5076906;28;19947;-84
2023/06/25 09:46:45;;;;;;;;;;;;;;;;;;5077099;28;19965;-84
2023/06/25 09:49:11;;;;;;;;;;;;;;;;;;5077122;28;19920;-85
2023/06/25 09:51:37;;;;;;;;;;;;;;;;;;5075181;28;19924;-85
2023/06/25 09:54:03;;;;;;;;;;;;;;;;;;5076880;28;20374;-83
2023/06/25 09:56:29;;;;;;;;;;;;;;;;;;5076963;28;19928;-85
2023/06/25 09:58:55;;;;;;;;;;;;;;;;;;5076607;28;19927;-84
2023/06/25 10:01:22;;;;;;;;;;;;;;;;;;5083974;28;19904;-85
2023/06/25 10:03:51;;;;;;;;;;;;;;;;;;5102117;28;19943;-84
2023/06/25 10:06:17;;;;;;;;;;;;;;;;;;5084033;28;19928;-85
2023/06/25 10:08:45;;;;;;;;;;;;;;;;;;5101316;28;19920;-84
2023/06/25 10:11:11;;;;;;;;;;;;;;;;;;5098103;28;19924;-85
2023/06/25 10:13:37;;;;;;;;;;;;;;;;;;5088789;28;19967;-83
2023/06/25 10:16:09;;;;;;;;;;;;;;;;;;5100133;28;19938;-83
2023/06/25 10:19:00;;;;;;;;;;;;;;;;;;5116496;28;19922;-87
2023/06/25 10:21:26;;;;;;;;;;;;;;;;;;5100887;28;19908;-84
2023/06/25 10:23:56;;;;;;;;;;;;;;;;;;5111048;28;19920;-85
2023/06/25 10:26:23;;;;;;;;;;;;;;;;;;5099329;28;19977;-83
2023/06/25 10:28:52;;;;;;;;;;;;;;;;;;5101901;28;19920;-84
2023/06/25 10:31:23;;;;;;;;;;;;;;;;;;5100690;28;19978;-82
2023/06/25 10:33:55;;;;;;;;;;;;;;;;;;5103995;28;19956;-81
2023/06/25 10:36:22;;;;;;;;;;;;;;;;;;5112821;28;19920;-84
2023/06/25 10:38:49;;;;;;;;;;;;;;;;;;5080672;28;19935;-83
2023/06/25 10:41:17;;;;;;;;;;;;;;;;;;5111346;28;20483;-83
2023/06/25 10:43:46;;;;;;;;;;;;;;;;;;5094044;28;19942;-84
2023/06/25 10:46:19;;;;;;;;;;;;;;;;;;5118799;28;20002;-82
2023/06/25 10:48:45;;;;;;;;;;;;;;;;;;5095040;28;19920;-82
2023/06/25 10:51:15;;;;;;;;;;;;;;;;;;5094014;28;19927;-83
2023/06/25 10:53:50;;;;;;;;;;;;;;;;;;5114436;28;19994;-85
2023/06/25 10:56:16;;;;;;;;;;;;;;;;;;5078134;28;19920;-82
2023/06/25 10:58:44;;;;;;;;;;;;;;;;;;5097574;28;19904;-83
2023/06/25 11:01:23;;;;;;;;;;;;;;;;;;5118136;28;19920;-82
2023/06/25 11:03:52;;;;;;;;;;;;;;;;;;5096867;28;19942;-82
2023/06/25 11:06:21;;;;;;;;;;;;;;;;;;5125434;28;19920;-81
2023/06/25 11:08:49;;;;;;;;;;;;;;;;;;5098153;28;19955;-82
2023/06/25 11:11:15;;;;;;;;;;;;;;;;;;5094890;28;20301;-82
2023/06/25 11:13:42;;;;;;;;;;;;;;;;;;5080276;28;19924;-80
2023/06/25 11:16:15;;;;;;;;;;;;;;;;;;5096145;28;19927;-82
2023/06/25 11:18:41;;;;;;;;;;;;;;;;;;5096714;28;19942;-83
2023/06/25 11:21:07;;;;;;;;;;;;;;;;;;5096042;28;19925;-84
2023/06/25 11:23:36;;;;;;;;;;;;;;;;;;5079936;28;19924;-82
2023/06/25 11:26:03;;;;;;;;;;;;;;;;;;5096570;28;19920;-84
2023/06/25 11:28:32;;;;;;;;;;;;;;;;;;5095029;28;19920;-83
2023/06/25 11:31:01;;;;;;;;;;;;;;;;;;5097297;28;19904;-85
2023/06/25 11:33:28;;;;;;;;;;;;;;;;;;5113357;28;19928;-83
2023/06/25 11:35:54;;;;;;;;;;;;;;;;;;5079885;28;19927;-84
2023/06/25 11:38:19;;;;;;;;;;;;;;;;;;5096084;28;19921;-85
2023/06/25 11:43:49;;;;;;;;;;;;;;;;;;5114781;28;20062;-85
2023/06/25 11:46:17;;;;;;;;;;;;;;;;;;5097198;28;19963;-82
2023/06/25 11:48:43;;;;;;;;;;;;;;;;;;5097742;28;19958;-84
2023/06/25 11:51:10;;;;;;;;;;;;;;;;;;5118476;28;19914;-84
2023/06/25 11:53:36;;;;;;;;;;;;;;;;;;5099037;28;19924;-83
2023/06/25 11:56:02;;;;;;;;;;;;;;;;;;5096414;28;19971;-84
2023/06/25 11:58:31;;;;;;;;;;;;;;;;;;5118050;28;19912;-82
2023/06/25 12:01:10;;;;;;;;;;;;;;;;;;5119586;28;19908;-84
2023/06/25 12:03:39;;;;;;;;;;;;;;;;;;5115423;28;19911;-85
2023/06/25 12:58:51;;;;;;;;;;;;;;;;;;5033732;26;19932;-87
2023/06/25 13:01:26;;;;;;;;;;;;;;;;;;5005458;28;19905;-87
2023/06/25 13:03:52;;;;;;;;;;;;;;;;;;5003276;28;19970;-85
2023/06/25 13:06:20;;;;;;;;;;;;;;;;;;5003164;28;19905;-85
2023/06/25 13:08:53;;;;;;;;;;;;;;;;;;5019717;28;19910;-86
2023/06/25 13:11:34;;;;;;;;;;;;;;;;;;5020308;28;19929;-84
2023/06/25 13:14:09;;;;;;;;;;;;;;;;;;5023846;28;19929;-85
2023/06/25 13:16:36;;;;;;;;;;;;;;;;;;5023319;28;19910;-84
2023/06/25 13:19:03;;;;;;;;;;;;;;;;;;5022662;28;19916;-85
2023/06/25 13:21:30;;;;;;;;;;;;;;;;;;5022876;28;19921;-84
2023/06/25 13:23:59;;;;;;;;;;;;;;;;;;5038957;28;19923;-84
2023/06/25 13:26:41;;;;;;;;;;;;;;;;;;5025129;28;19914;-86
2023/06/25 13:29:08;;;;;;;;;;;;;;;;;;5007764;28;19909;-85
2023/06/25 13:31:37;;;;;;;;;;;;;;;;;;5021700;28;19984;-86
2023/06/25 13:34:14;;;;;;;;;;;;;;;;;;;;;
2023/06/25 13:36:47;;;;;;;;;;;;;;;;;;5035382;28;19932;-86
2023/06/25 13:39:32;;;;;;;;;;;;;;;;;;5038869;28;19932;-87
2023/06/25 13:41:59;;;;;;;;;;;;;;;;;;5019667;28;20430;-84
2023/06/25 13:44:34;;;;;;;;;;;;;;;;;;5002705;28;19921;-85
2023/06/25 13:47:03;;;;;;;;;;;;;;;;;;5005712;28;19949;-85
2023/06/25 13:49:32;;;;;;;;;;;;;;;;;;5022059;28;19943;-85
2023/06/25 13:51:58;;;;;;;;;;;;;;;;;;5004845;28;19917;-85
2023/06/25 13:54:26;;;;;;;;;;;;;;;;;;5003489;28;19952;-86
2023/06/25 13:56:54;;;;;;;;;;;;;;;;;;5022567;28;19932;-84
2023/06/25 13:59:29;;;;;;;;;;;;;;;;;;5035771;28;19924;-85
2023/06/25 14:01:55;;;;;;;;;;;;;;;;;;5001453;28;19977;-86
2023/06/25 14:04:21;;;;;;;;;;;;;;;;;;5018184;28;19906;-84
2023/06/25 14:06:47;;;;;;;;;;;;;;;;;;5002173;28;19932;-84
2023/06/25 14:09:15;;;;;;;;;;;;;;;;;;5020674;28;19912;-87
2023/06/25 14:11:50;;;;;;;;;;;;;;;;;;5021008;28;19922;-87
2023/06/25 14:14:16;;;;;;;;;;;;;;;;;;5018451;28;19992;-85
2023/06/25 14:16:43;;;;;;;;;;;;;;;;;;5018091;28;19921;-86
2023/06/25 14:19:10;;;;;;;;;;;;;;;;;;5000774;28;19926;-85
2023/06/25 14:21:36;;;;;;;;;;;;;;;;;;5003941;28;19940;-84
2023/06/25 14:24:02;;;;;;;;;;;;;;;;;;5001718;28;19929;-83
2023/06/25 14:26:31;;;;;;;;;;;;;;;;;;5035755;28;19922;-85
2023/06/25 14:29:00;;;;;;;;;;;;;;;;;;5020995;28;19905;-85
2023/06/25 14:31:26;;;;;;;;;;;;;;;;;;5004427;28;20080;-85
2023/06/25 14:33:52;;;;;;;;;;;;;;;;;;5004611;28;19926;-85
2023/06/25 14:36:18;;;;;;;;;;;;;;;;;;5003919;28;19905;-85
2023/06/25 14:38:45;;;;;;;;;;;;;;;;;;5018161;28;19928;-86
2023/06/25 14:41:12;;;;;;;;;;;;;;;;;;5018705;28;19905;-87
2023/06/25 14:43:38;;;;;;;;;;;;;;;;;;5034527;28;19973;-86
2023/06/25 14:46:04;;;;;;;;;;;;;;;;;;5001760;28;19921;-85
2023/06/25 14:48:34;;;;;;;;;;;;;;;;;;5018318;28;19921;-86
2023/06/25 14:51:03;;;;;;;;;;;;;;;;;;5037358;28;19932;-86
2023/06/25 14:53:45;;;;;;;;;;;;;;;;;;5021510;28;19948;-88
2023/06/25 14:56:11;;;;;;;;;;;;;;;;;;5020369;28;19910;-87
2023/06/25 14:58:40;;;;;;;;;;;;;;;;;;5021064;28;19913;-85
2023/06/25 15:01:26;;;;;;;;;;;;;;;;;;5038364;28;19912;-87
2023/06/25 15:03:56;;;;;;;;;;;;;;;;;;5035423;28;19925;-86
2023/06/25 15:06:26;;;;;;;;;;;;;;;;;;5035318;28;19988;-87
2023/06/25 15:08:53;;;;;;;;;;;;;;;;;;5020220;28;19928;-86
2023/06/25 15:11:20;;;;;;;;;;;;;;;;;;5019051;28;19925;-85
2023/06/25 15:13:47;;;;;;;;;;;;;;;;;;5020200;28;19972;-85
2023/06/25 15:16:13;;;;;;;;;;;;;;;;;;5019051;28;19944;-86
2023/06/25 15:18:39;;;;;;;;;;;;;;;;;;5021290;28;19926;-87
2023/06/25 15:21:08;;;;;;;;;;;;;;;;;;5019065;28;19925;-86
2023/06/25 15:23:34;;;;;;;;;;;;;;;;;;5018527;28;19929;-86
2023/06/25 15:26:05;;;;;;;;;;;;;;;;;;5019636;28;19980;-86
2023/06/25 15:28:32;;;;;;;;;;;;;;;;;;5020677;28;19921;-86
2023/06/25 15:30:58;;;;;;;;;;;;;;;;;;5019016;28;19961;-85
2023/06/25 15:33:30;;;;;;;;;;;;;;;;;;5035877;28;20023;-84
2023/06/25 15:35:59;;;;;;;;;;;;;;;;;;5035023;28;19933;-86
2023/06/25 15:38:26;;;;;;;;;;;;;;;;;;5034838;28;19913;-86
2023/06/25 15:40:52;;;;;;;;;;;;;;;;;;5017850;28;19921;-90
2023/06/25 15:43:19;;;;;;;;;;;;;;;;;;5019469;28;19925;-87
2023/06/25 15:45:47;;;;;;;;;;;;;;;;;;5036010;28;19905;-87
2023/06/25 15:48:16;;;;;;;;;;;;;;;;;;5018629;28;19922;-88
2023/06/25 15:50:45;;;;;;;;;;;;;;;;;;5003249;28;19913;-87
2023/06/25 15:53:17;;;;;;;;;;;;;;;;;;5019101;28;19925;-87
2023/06/25 15:55:46;;;;;;;;;;;;;;;;;;5003252;28;19949;-86
2023/06/25 15:58:19;;;;;;;;;;;;;;;;;;5034286;28;19922;-87
2023/06/25 16:00:46;;;;;;;;;;;;;;;;;;5003943;28;19933;-87
2023/06/25 16:06:55;;;;;;;;;;;;;;;;;;5029584;28;20051;-87
2023/06/25 16:09:28;;;;;;;;;;;;;;;;;;5004790;28;19930;-87
2023/06/25 16:15:07;;;;;;;;;;;;;;;;;;5166177;23;19916;-86
2023/06/25 17:20:23;;;;;;;;;;;;;;;;;;5202726;23;19989;-87
2023/06/25 17:23:07;;;;;;;;;;;;;;;;;;;;;
2023/06/25 17:28:27;;;;;;;;;;;;;;;;;;6035144;23;19967;-87
2023/06/25 17:30:54;;;;;;;;;;;;;;;;;;5025250;28;19925;-85
2023/06/25 17:33:24;;;;;;;;;;;;;;;;;;5043671;28;19944;-85
2023/06/25 17:35:52;;;;;;;;;;;;;;;;;;5041286;28;19933;-87
2023/06/25 17:38:18;;;;;;;;;;;;;;;;;;5042003;28;19909;-86
2023/06/25 17:40:45;;;;;;;;;;;;;;;;;;5036034;28;19926;-86
2023/06/25 17:43:19;;;;;;;;;;;;;;;;;;5024515;28;19932;-86
2023/06/25 17:45:51;;;;;;;;;;;;;;;;;;5043912;28;19909;-87
2023/06/25 17:48:17;;;;;;;;;;;;;;;;;;5015667;28;19919;-84
2023/06/25 17:50:43;;;;;;;;;;;;;;;;;;5006079;28;19925;-86
2023/06/25 17:53:09;;;;;;;;;;;;;;;;;;5022949;28;19964;-86
2023/06/25 17:55:36;;;;;;;;;;;;;;;;;;5026857;28;19932;-87
2023/06/25 17:58:02;;;;;;;;;;;;;;;;;;5042216;28;19944;-87
2023/06/25 18:00:43;;;;;;;;;;;;;;;;;;5020245;28;19993;-87
2023/06/25 18:03:19;;;;;;;;;;;;;;;;;;5023969;28;19928;-85
2023/06/25 18:08:24;;;;;;;;;;;;;;;;;;5652116;23;19921;-86
2023/06/25 18:11:09;;;;;;;;;;;;;;;;;;5043903;28;19920;-87
2023/06/25 18:13:35;;;;;;;;;;;;;;;;;;5050137;28;19909;-87
2023/06/25 18:16:06;;;;;;;;;;;;;;;;;;5039289;28;19915;-86
2023/06/25 18:18:32;;;;;;;;;;;;;;;;;;5008281;28;19929;-88
2023/06/25 18:21:01;;;;;;;;;;;;;;;;;;5006870;28;19932;-87
2023/06/25 18:23:33;;;;;;;;;;;;;;;;;;5043509;28;19933;-87
2023/06/25 18:25:59;;;;;;;;;;;;;;;;;;5495530;23;19932;-89
2023/06/25 18:36:55;;;;;;;;;;;;;;;;;;5084646;28;19907;-87
2023/06/25 18:42:00;;;;;;;;;;;;;;;;;;5150334;22;19935;-85
2023/06/25 18:44:45;;;;;;;;;;;;;;;;;;5064551;28;19908;-88
2023/06/25 19:28:50;;;;;;;;;;;;;;;;;;5670419;23;19921;-85
2023/06/25 19:31:17;;;;;;;;;;;;;;;;;;5058689;28;19908;-87
2023/06/25 19:34:17;;;;;;;;;;;;;;;;;;5073534;28;19925;-83
2023/06/25 19:39:26;;;;;;;;;;;;;;;;;;5057972;28;19909;-87
2023/06/25 19:41:58;;;;;;;;;;;;;;;;;;5058826;28;19932;-86
2023/06/25 19:47:25;;;;;;;;;;;;;;;;;;5073146;28;19936;-83
2023/06/25 21:24:48;;;;;;;;;;;;;;;;;;5605194;22;19913;-85
2023/06/25 21:27:17;;;;;;;;;;;;;;;;;;5037752;28;19926;-85
2023/06/25 21:29:59;;;;;;;;;;;;;;;;;;5018617;28;19985;-86
2023/06/25 21:32:36;;;;;;;;;;;;;;;;;;5041445;28;19917;-85
2023/06/25 21:37:43;;;;;;;;;;;;;;;;;;5210948;22;19926;-86
2023/06/25 21:40:09;;;;;;;;;;;;;;;;;;5019877;28;19909;-84
2023/06/25 21:42:50;;;;;;;;;;;;;;;;;;5034769;28;19909;-85